createdAt,value
2019-06-27T00:00:23.527Z,99.90
2019-06-27T00:02:53.444Z,99.90
2019-06-27T00:05:23.194Z,99.90
2019-06-27T00:07:53.037Z,99.90
2019-06-27T00:10:23.874Z,99.90
2019-06-27T00:12:53.735Z,99.90
2019-06-27T00:15:23.533Z,99.90
2019-06-27T00:17:53.242Z,99.90
2019-06-27T00:20:23.166Z,99.90
2019-06-27T00:22:52.934Z,99.90
2019-06-27T00:25:23.186Z,99.90
2019-06-27T00:27:52.898Z,99.90
2019-06-27T00:30:22.962Z,99.90
2019-06-27T00:32:52.902Z,99.90
2019-06-27T00:35:25.118Z,99.90
2019-06-27T00:37:54.866Z,99.90
2019-06-27T00:40:25.716Z,99.90
2019-06-27T00:42:55.398Z,99.90
2019-06-27T00:45:25.163Z,99.90
2019-06-27T00:47:54.879Z,99.90
2019-06-27T00:50:24.655Z,99.90
2019-06-27T00:52:54.753Z,99.90
2019-06-27T00:55:25.594Z,99.90
2019-06-27T00:57:55.462Z,99.90
2019-06-27T01:00:25.227Z,99.90
2019-06-27T01:02:55.096Z,99.90
2019-06-27T01:05:24.887Z,99.90
2019-06-27T01:07:54.714Z,99.90
2019-06-27T01:10:26.370Z,99.90
2019-06-27T01:12:56.275Z,99.90
2019-06-27T01:15:26.140Z,99.90
2019-06-27T01:17:55.987Z,99.90
2019-06-27T01:20:25.836Z,99.90
2019-06-27T01:22:55.598Z,99.90
2019-06-27T01:25:25.443Z,99.90
2019-06-27T01:27:55.242Z,99.90
2019-06-27T01:30:25.271Z,99.90
2019-06-27T01:32:55.230Z,99.90
2019-06-27T01:35:24.915Z,99.90
2019-06-27T01:37:54.617Z,99.90
2019-06-27T01:40:24.376Z,99.90
2019-06-27T01:42:54.138Z,99.90
2019-06-27T01:45:29.447Z,99.90
2019-06-27T01:47:59.148Z,99.90
2019-06-27T01:50:28.838Z,99.90
2019-06-27T01:52:58.629Z,99.90
2019-06-27T01:55:28.466Z,99.90
2019-06-27T01:57:58.315Z,99.90
2019-06-27T02:00:28.977Z,99.90
2019-06-27T02:02:59.769Z,99.90
2019-06-27T02:05:29.626Z,99.90
2019-06-27T02:07:59.394Z,99.90
2019-06-27T02:10:29.170Z,99.90
2019-06-27T02:12:58.858Z,99.90
2019-06-27T02:15:28.695Z,99.90
2019-06-27T02:17:58.579Z,99.90
2019-06-27T02:20:28.699Z,99.90
2019-06-27T02:22:58.476Z,99.90
2019-06-27T02:25:28.308Z,99.90
2019-06-27T02:28:03.824Z,99.90
2019-06-27T02:30:36.995Z,99.90
2019-06-27T02:33:06.792Z,99.90
2019-06-27T02:35:36.630Z,99.90
2019-06-27T02:38:07.498Z,99.90
2019-06-27T02:40:39.807Z,99.90
2019-06-27T02:43:09.550Z,99.90
2019-06-27T02:45:39.312Z,99.90
2019-06-27T02:48:09.157Z,99.90
2019-06-27T02:50:38.922Z,99.90
2019-06-27T02:53:08.702Z,99.90
2019-06-27T02:55:39.944Z,99.90
2019-06-27T02:58:28.873Z,99.90
2019-06-27T03:00:41.303Z,99.90
2019-06-27T03:03:11.075Z,99.90
2019-06-27T03:05:40.790Z,99.90
2019-06-27T03:08:10.847Z,99.90
2019-06-27T03:10:40.616Z,99.90
2019-06-27T03:13:10.591Z,99.90
2019-06-27T03:15:40.407Z,99.90
2019-06-27T03:18:10.140Z,99.90
2019-06-27T03:20:39.919Z,99.90
2019-06-27T03:23:09.661Z,99.90
2019-06-27T03:25:39.416Z,99.90
2019-06-27T03:28:09.191Z,99.90
2019-06-27T03:30:39.066Z,99.90
2019-06-27T03:33:08.958Z,99.90
2019-06-27T03:35:38.661Z,99.90
2019-06-27T03:38:08.653Z,99.90
2019-06-27T03:40:38.481Z,99.90
2019-06-27T03:43:08.322Z,99.90
2019-06-27T03:45:38.279Z,99.90
2019-06-27T03:48:07.992Z,99.90
2019-06-27T03:50:37.782Z,99.90
2019-06-27T03:53:09.887Z,99.90
2019-06-27T03:55:39.659Z,99.90
2019-06-27T03:58:09.354Z,99.90
2019-06-27T04:00:39.269Z,99.90
2019-06-27T04:03:09.131Z,99.90
2019-06-27T04:05:38.970Z,99.90
2019-06-27T04:08:08.734Z,99.90
2019-06-27T04:10:38.599Z,99.90
2019-06-27T04:13:09.410Z,99.90
2019-06-27T04:15:39.090Z,99.90
2019-06-27T04:18:08.985Z,99.90
2019-06-27T04:20:38.898Z,99.90
2019-06-27T04:23:08.763Z,99.90
2019-06-27T04:25:38.454Z,99.90
2019-06-27T04:28:09.384Z,99.90
2019-06-27T04:30:39.142Z,99.90
2019-06-27T04:33:08.830Z,99.90
2019-06-27T04:35:38.611Z,99.90
2019-06-27T04:38:08.972Z,99.90
2019-06-27T04:40:38.714Z,99.90
2019-06-27T04:43:08.423Z,99.90
2019-06-27T04:45:38.166Z,99.90
2019-06-27T04:48:08.000Z,99.90
2019-06-27T04:50:37.765Z,99.90
2019-06-27T04:53:07.503Z,99.90
2019-06-27T04:55:37.239Z,99.90
2019-06-27T04:58:15.066Z,99.90
2019-06-27T05:00:44.737Z,99.90
2019-06-27T05:03:14.421Z,99.90
2019-06-27T05:05:44.119Z,99.90
2019-06-27T05:08:14.800Z,99.90
2019-06-27T05:10:45.002Z,99.90
2019-06-27T05:13:14.688Z,99.90
2019-06-27T05:15:45.725Z,99.90
2019-06-27T05:18:15.547Z,99.90
2019-06-27T05:20:45.356Z,99.90
2019-06-27T05:23:15.056Z,99.90
2019-06-27T05:25:47.199Z,99.90
2019-06-27T05:28:16.908Z,99.90
2019-06-27T05:30:46.624Z,99.90
2019-06-27T05:33:16.329Z,99.90
2019-06-27T05:35:46.018Z,99.90
2019-06-27T05:38:15.814Z,99.90
2019-06-27T05:40:46.095Z,99.90
2019-06-27T05:43:15.900Z,99.90
2019-06-27T05:45:45.623Z,99.90
2019-06-27T05:48:15.644Z,99.90
2019-06-27T05:50:45.370Z,99.90
2019-06-27T05:53:15.151Z,99.90
2019-06-27T05:55:44.877Z,99.90
2019-06-27T05:58:14.653Z,99.90
2019-06-27T06:00:44.423Z,99.90
2019-06-27T06:03:14.132Z,99.90
2019-06-27T06:05:43.925Z,99.90
2019-06-27T06:08:13.764Z,99.80
2019-06-27T06:10:43.650Z,99.90
2019-06-27T06:13:13.359Z,99.60
2019-06-27T06:15:44.243Z,99.50
2019-06-27T06:18:13.935Z,99.20
2019-06-27T06:20:44.319Z,99.30
2019-06-27T06:23:14.101Z,98.90
2019-06-27T06:25:43.794Z,99.30
2019-06-27T06:28:13.542Z,98.50
2019-06-27T06:30:45.076Z,98.70
2019-06-27T06:33:14.708Z,97.60
2019-06-27T06:35:45.379Z,97.40
2019-06-27T06:38:15.075Z,96.90
2019-06-27T06:40:44.921Z,96.50
2019-06-27T06:43:14.631Z,97.10
2019-06-27T06:45:44.340Z,97.60
2019-06-27T06:48:14.026Z,97.20
2019-06-27T06:50:43.884Z,97.00
2019-06-27T06:53:13.649Z,96.70
2019-06-27T06:55:43.355Z,95.60
2019-06-27T06:58:13.197Z,95.00
2019-06-27T07:00:59.922Z,93.20
2019-06-27T07:03:14.468Z,93.10
2019-06-27T07:05:44.249Z,92.50
2019-06-27T07:08:13.962Z,92.20
2019-06-27T07:10:43.647Z,92.40
2019-06-27T07:13:13.364Z,92.60
2019-06-27T07:15:43.039Z,92.40
2019-06-27T07:18:12.753Z,93.10
2019-06-27T07:20:42.683Z,91.50
2019-06-27T07:23:12.469Z,90.50
2019-06-27T07:25:44.568Z,90.80
2019-06-27T07:28:14.649Z,91.20
2019-06-27T07:30:44.487Z,91.90
2019-06-27T07:33:14.391Z,91.90
2019-06-27T07:35:44.234Z,91.80
2019-06-27T07:38:14.031Z,92.30
2019-06-27T07:40:43.775Z,92.30
2019-06-27T07:43:13.463Z,92.00
2019-06-27T07:45:43.474Z,91.70
2019-06-27T07:48:13.190Z,91.80
2019-06-27T07:50:42.949Z,92.60
2019-06-27T07:53:12.827Z,90.40
2019-06-27T07:55:42.540Z,90.40
2019-06-27T07:58:12.657Z,90.00
2019-06-27T08:00:43.402Z,90.80
2019-06-27T08:03:13.166Z,91.20
2019-06-27T08:05:43.055Z,90.50
2019-06-27T08:08:12.763Z,90.30
2019-06-27T08:10:42.598Z,90.60
2019-06-27T08:13:12.467Z,90.20
2019-06-27T08:15:42.153Z,89.50
2019-06-27T08:18:11.842Z,91.20
2019-06-27T08:20:41.636Z,89.70
2019-06-27T08:23:11.443Z,88.20
2019-06-27T08:25:41.259Z,89.60
2019-06-27T08:28:10.975Z,90.00
2019-06-27T08:30:40.787Z,89.00
2019-06-27T08:33:11.804Z,88.30
2019-06-27T08:35:41.491Z,85.10
2019-06-27T08:38:11.239Z,87.30
2019-06-27T08:40:41.067Z,87.60
2019-06-27T08:43:10.867Z,87.60
2019-06-27T08:45:40.650Z,87.80
2019-06-27T08:48:10.428Z,85.60
2019-06-27T08:50:40.134Z,86.90
2019-06-27T08:53:10.991Z,88.70
2019-06-27T08:55:40.750Z,87.10
2019-06-27T08:58:10.653Z,87.30
2019-06-27T09:00:40.409Z,87.90
2019-06-27T09:03:11.181Z,87.70
2019-06-27T09:05:41.084Z,88.50
2019-06-27T09:08:11.003Z,90.10
2019-06-27T09:10:40.862Z,89.00
2019-06-27T09:13:10.999Z,89.30
2019-06-27T09:15:40.711Z,86.90
2019-06-27T09:18:10.446Z,85.80
2019-06-27T09:20:40.419Z,85.40
2019-06-27T09:23:10.284Z,87.70
2019-06-27T09:25:40.049Z,87.60
2019-06-27T09:28:09.903Z,88.70
2019-06-27T09:30:39.830Z,88.50
2019-06-27T09:33:10.670Z,86.70
2019-06-27T09:35:40.493Z,87.40
2019-06-27T09:38:10.447Z,88.90
2019-06-27T09:40:40.232Z,87.60
2019-06-27T09:43:10.012Z,88.80
2019-06-27T09:45:39.787Z,86.80
2019-06-27T09:48:09.578Z,85.70
2019-06-27T09:50:39.407Z,87.20
2019-06-27T09:53:09.153Z,89.70
2019-06-27T09:55:38.934Z,89.70
2019-06-27T09:58:09.739Z,89.70
2019-06-27T10:00:39.527Z,89.80
2019-06-27T10:03:09.316Z,90.50
2019-06-27T10:05:39.152Z,90.70
2019-06-27T10:08:10.035Z,90.40
2019-06-27T10:10:39.943Z,90.20
2019-06-27T10:13:09.729Z,90.70
2019-06-27T10:15:39.441Z,91.30
2019-06-27T10:18:09.283Z,91.10
2019-06-27T10:20:39.021Z,90.40
2019-06-27T10:23:08.910Z,91.20
2019-06-27T10:25:38.811Z,90.90
2019-06-27T10:28:08.696Z,90.90
2019-06-27T10:30:38.463Z,90.80
2019-06-27T10:33:08.175Z,90.60
2019-06-27T10:35:37.960Z,90.90
2019-06-27T10:38:07.743Z,91.30
2019-06-27T10:40:37.574Z,91.30
2019-06-27T10:43:07.444Z,90.90
2019-06-27T10:45:38.123Z,90.30
2019-06-27T10:48:07.879Z,90.50
2019-06-27T10:50:37.672Z,90.60
2019-06-27T10:53:07.434Z,91.30
2019-06-27T10:55:37.325Z,91.90
2019-06-27T10:58:07.667Z,92.20
2019-06-27T11:00:37.652Z,91.70
2019-06-27T11:03:15.774Z,91.60
2019-06-27T11:05:39.384Z,91.50
2019-06-27T11:08:09.425Z,91.40
2019-06-27T11:10:41.601Z,91.60
2019-06-27T11:13:11.528Z,91.30
2019-06-27T11:15:41.388Z,91.20
2019-06-27T11:18:11.371Z,91.60
2019-06-27T11:20:41.077Z,91.00
2019-06-27T11:23:11.008Z,91.30
2019-06-27T11:25:40.712Z,91.60
2019-06-27T11:28:10.649Z,92.10
2019-06-27T11:30:40.367Z,91.60
2019-06-27T11:33:10.264Z,91.40
2019-06-27T11:35:40.079Z,90.90
2019-06-27T11:38:09.757Z,90.50
2019-06-27T11:40:39.618Z,90.00
2019-06-27T11:43:09.453Z,89.00
2019-06-27T11:45:39.148Z,89.20
2019-06-27T11:48:09.163Z,89.20
2019-06-27T11:50:39.877Z,88.10
2019-06-27T11:53:09.755Z,88.70
2019-06-27T11:55:39.528Z,87.10
2019-06-27T11:58:09.411Z,87.60
2019-06-27T12:00:39.713Z,85.70
2019-06-27T12:03:09.657Z,85.30
2019-06-27T12:05:39.573Z,85.80
2019-06-27T12:08:10.983Z,86.30
2019-06-27T12:10:40.916Z,84.00
2019-06-27T12:13:10.941Z,82.90
2019-06-27T12:15:41.753Z,83.00
2019-06-27T12:18:11.908Z,83.90
2019-06-27T12:20:41.648Z,84.90
2019-06-27T12:23:11.539Z,84.80
2019-06-27T12:25:41.298Z,82.70
2019-06-27T12:28:11.297Z,82.30
2019-06-27T12:30:41.015Z,82.70
2019-06-27T12:33:10.890Z,82.10
2019-06-27T12:35:40.674Z,83.40
2019-06-27T12:38:10.611Z,83.10
2019-06-27T12:40:40.379Z,81.00
2019-06-27T12:43:14.185Z,82.00
2019-06-27T12:45:41.760Z,82.40
2019-06-27T12:48:11.980Z,83.00
2019-06-27T12:50:41.759Z,82.50
2019-06-27T12:53:12.016Z,81.70
2019-06-27T12:55:41.716Z,82.50
2019-06-27T12:58:11.668Z,82.30
2019-06-27T13:00:41.480Z,82.50
2019-06-27T13:03:12.597Z,83.20
2019-06-27T13:05:42.405Z,83.40
2019-06-27T13:08:12.269Z,81.40
2019-06-27T13:10:42.003Z,82.10
2019-06-27T13:13:13.144Z,81.60
2019-06-27T13:15:42.827Z,85.40
2019-06-27T13:18:12.616Z,82.20
2019-06-27T13:20:56.541Z,83.50
2019-06-27T13:23:15.067Z,83.50
2019-06-27T13:25:44.773Z,82.40
2019-06-27T13:28:14.551Z,82.10
2019-06-27T13:30:44.386Z,82.30
2019-06-27T13:33:14.188Z,79.70
2019-06-27T13:35:43.936Z,80.90
2019-06-27T13:38:13.669Z,82.60
2019-06-27T13:40:43.374Z,80.90
2019-06-27T13:43:13.230Z,82.30
2019-06-27T13:45:42.921Z,79.90
2019-06-27T13:48:12.785Z,83.80
2019-06-27T13:50:42.595Z,81.30
2019-06-27T13:53:12.645Z,80.70
2019-06-27T13:55:44.276Z,81.70
2019-06-27T13:58:14.083Z,83.20
2019-06-27T14:00:44.958Z,82.20
2019-06-27T14:03:15.027Z,80.30
2019-06-27T14:05:44.734Z,80.90
2019-06-27T14:08:14.637Z,80.90
2019-06-27T14:10:44.387Z,82.10
2019-06-27T14:13:14.099Z,81.30
2019-06-27T14:15:43.858Z,79.70
2019-06-27T14:18:13.762Z,80.70
2019-06-27T14:20:43.453Z,79.30
2019-06-27T14:23:13.353Z,80.90
2019-06-27T14:25:43.107Z,81.90
2019-06-27T14:28:13.874Z,79.00
2019-06-27T14:30:43.598Z,77.70
2019-06-27T14:33:13.369Z,77.20
2019-06-27T14:35:43.152Z,78.60
2019-06-27T14:38:13.136Z,75.70
2019-06-27T14:40:44.453Z,73.60
2019-06-27T14:43:14.308Z,76.20
2019-06-27T14:45:44.008Z,73.70
2019-06-27T14:48:16.209Z,75.90
2019-06-27T14:50:45.987Z,76.40
2019-06-27T14:53:17.438Z,76.30
2019-06-27T14:55:47.128Z,77.20
2019-06-27T14:58:16.827Z,73.90
2019-06-27T15:00:46.693Z,72.80
2019-06-27T15:03:16.456Z,73.90
2019-06-27T15:05:46.252Z,73.20
2019-06-27T15:08:15.965Z,71.40
2019-06-27T15:10:45.802Z,68.20
2019-06-27T15:13:15.635Z,70.70
2019-06-27T15:15:45.340Z,68.40
2019-06-27T15:18:16.852Z,66.80
2019-06-27T15:20:46.664Z,65.50
2019-06-27T15:23:17.373Z,65.70
2019-06-27T15:25:47.077Z,64.70
2019-06-27T15:28:16.863Z,66.30
2019-06-27T15:30:46.651Z,66.20
2019-06-27T15:33:16.376Z,66.40
2019-06-27T15:35:52.519Z,67.00
2019-06-27T15:38:17.597Z,66.50
2019-06-27T15:40:47.483Z,65.10
2019-06-27T15:43:36.398Z,63.90
2019-06-27T15:46:06.786Z,62.40
2019-06-27T15:48:36.489Z,61.40
2019-06-27T15:51:06.213Z,61.20
2019-06-27T15:53:35.958Z,59.70
2019-06-27T15:56:05.887Z,59.40
2019-06-27T15:58:35.682Z,60.50
2019-06-27T16:01:05.682Z,58.40
2019-06-27T16:03:35.485Z,58.70
2019-06-27T16:06:10.219Z,62.70
2019-06-27T16:08:37.072Z,65.20
2019-06-27T16:11:06.977Z,64.70
2019-06-27T16:13:36.811Z,64.30
2019-06-27T16:16:07.029Z,64.10
2019-06-27T16:18:36.739Z,63.60
2019-06-27T16:21:06.672Z,62.80
2019-06-27T16:23:37.623Z,61.00
2019-06-27T16:26:07.533Z,58.70
2019-06-27T16:28:40.032Z,56.70
2019-06-27T16:31:09.902Z,59.10
2019-06-27T16:33:39.743Z,57.90
2019-06-27T16:36:24.388Z,57.70
2019-06-27T16:38:42.121Z,56.60
2019-06-27T16:41:12.103Z,57.50
2019-06-27T16:43:41.924Z,55.40
2019-06-27T16:46:11.948Z,55.30
2019-06-27T16:48:41.685Z,56.60
2019-06-27T16:51:11.403Z,56.30
2019-06-27T16:53:41.225Z,55.00
2019-06-27T16:56:13.496Z,56.00
2019-06-27T16:58:43.336Z,58.10
2019-06-27T17:01:13.295Z,62.00
2019-06-27T17:03:43.084Z,66.20
2019-06-27T17:06:13.467Z,67.80
2019-06-27T17:08:43.167Z,68.90
2019-06-27T17:11:13.174Z,69.00
2019-06-27T17:13:43.070Z,69.60
2019-06-27T17:16:13.136Z,71.10
2019-06-27T17:18:43.336Z,72.60
2019-06-27T17:21:13.304Z,74.20
2019-06-27T17:23:43.039Z,75.70
2019-06-27T17:26:13.130Z,76.30
2019-06-27T17:28:43.995Z,78.50
2019-06-27T17:31:14.100Z,77.90
2019-06-27T17:33:44.978Z,76.80
2019-06-27T17:36:15.007Z,76.80
2019-06-27T17:38:44.747Z,75.20
2019-06-27T17:41:14.887Z,75.30
2019-06-27T17:43:44.828Z,76.00
2019-06-27T17:46:14.976Z,78.00
2019-06-27T17:48:44.658Z,79.10
2019-06-27T17:51:33.672Z,82.50
2019-06-27T17:54:03.652Z,82.90
2019-06-27T17:56:33.586Z,82.90
2019-06-27T17:59:03.347Z,83.90
2019-06-27T18:01:33.119Z,82.90
2019-06-27T18:04:02.830Z,84.10
2019-06-27T18:06:32.596Z,84.50
2019-06-27T18:09:02.350Z,86.40
2019-06-27T18:11:33.111Z,86.40
2019-06-27T18:14:02.871Z,84.50
2019-06-27T18:16:33.951Z,85.10
2019-06-27T18:19:03.684Z,82.70
2019-06-27T18:21:33.396Z,83.70
2019-06-27T18:24:03.100Z,84.80
2019-06-27T18:26:32.954Z,85.70
2019-06-27T18:29:02.674Z,87.30
2019-06-27T18:31:32.408Z,88.20
2019-06-27T18:34:02.177Z,88.30
2019-06-27T18:36:31.938Z,86.80
2019-06-27T18:39:01.734Z,87.40
2019-06-27T18:41:33.474Z,87.70
2019-06-27T18:44:03.289Z,88.50
2019-06-27T18:46:33.010Z,90.10
2019-06-27T18:49:02.820Z,89.60
2019-06-27T18:51:32.520Z,90.30
2019-06-27T18:54:04.438Z,90.70
2019-06-27T18:56:34.298Z,90.90
2019-06-27T18:59:04.158Z,90.90
2019-06-27T19:01:34.023Z,91.60
2019-06-27T19:04:03.943Z,91.50
2019-06-27T19:06:33.659Z,91.40
2019-06-27T19:09:03.819Z,91.30
2019-06-27T19:11:33.687Z,91.30
2019-06-27T19:14:03.710Z,91.20
2019-06-27T19:16:33.438Z,91.50
2019-06-27T19:19:05.676Z,91.30
2019-06-27T19:21:57.496Z,91.50
2019-06-27T19:24:50.249Z,91.50
2019-06-27T19:27:20.011Z,91.50
2019-06-27T19:29:49.707Z,91.70
2019-06-27T19:32:19.419Z,92.10
2019-06-27T19:34:49.189Z,92.40
2019-06-27T19:37:19.069Z,92.20
2019-06-27T19:39:50.054Z,92.00
2019-06-27T19:42:19.843Z,92.40
2019-06-27T19:44:49.602Z,92.50
2019-06-27T19:47:19.419Z,92.40
2019-06-27T19:49:49.229Z,91.90
2019-06-27T19:52:18.980Z,91.60
2019-06-27T19:54:48.859Z,92.20
2019-06-27T19:57:18.897Z,92.40
2019-06-27T19:59:48.597Z,92.60
2019-06-27T20:02:20.174Z,92.90
2019-06-27T20:04:49.883Z,93.00
2019-06-27T20:07:19.674Z,93.20
2019-06-27T20:09:49.536Z,93.90
2019-06-27T20:12:22.251Z,94.20
2019-06-27T20:14:52.068Z,94.20
2019-06-27T20:17:21.923Z,94.40
2019-06-27T20:19:51.762Z,94.60
2019-06-27T20:22:21.594Z,94.20
2019-06-27T20:24:51.359Z,94.40
2019-06-27T20:27:21.080Z,94.40
2019-06-27T20:29:50.774Z,94.30
2019-06-27T20:32:20.567Z,94.60
2019-06-27T20:34:50.356Z,95.00
2019-06-27T20:37:20.165Z,95.00
2019-06-27T20:39:49.878Z,95.10
2019-06-27T20:42:20.044Z,95.40
2019-06-27T20:44:49.807Z,95.60
2019-06-27T20:47:19.655Z,96.00
2019-06-27T20:49:49.385Z,96.20
2019-06-27T20:52:19.165Z,96.10
2019-06-27T20:54:51.539Z,96.10
2019-06-27T20:58:13.343Z,95.80
2019-06-27T21:00:44.168Z,95.70
2019-06-27T21:03:14.264Z,96.00
2019-06-27T21:05:45.082Z,95.70
2019-06-27T21:08:15.205Z,95.80
2019-06-27T21:10:45.011Z,95.50
2019-06-27T21:13:14.706Z,95.80
2019-06-27T21:15:44.683Z,95.30
2019-06-27T21:18:14.626Z,95.50
2019-06-27T21:20:44.346Z,95.70
2019-06-27T21:23:14.040Z,95.70
2019-06-27T21:25:44.312Z,96.10
2019-06-27T21:28:15.801Z,96.20
2019-06-27T21:30:46.031Z,96.30
2019-06-27T21:33:15.729Z,96.00
2019-06-27T21:35:46.899Z,96.30
2019-06-27T21:38:16.670Z,96.40
2019-06-27T21:40:46.350Z,96.50
2019-06-27T21:43:16.056Z,96.30
2019-06-27T21:45:45.773Z,96.80
2019-06-27T21:48:15.534Z,97.00
2019-06-27T21:50:45.398Z,97.30
2019-06-27T21:53:15.376Z,97.70
2019-06-27T21:55:45.480Z,97.10
2019-06-27T21:58:15.327Z,97.20
2019-06-27T22:00:45.359Z,97.40
2019-06-27T22:03:16.913Z,97.80
2019-06-27T22:05:46.662Z,97.70
2019-06-27T22:08:16.456Z,97.70
2019-06-27T22:10:47.267Z,98.00
2019-06-27T22:13:17.577Z,97.30
2019-06-27T22:15:47.459Z,97.70
2019-06-27T22:18:17.338Z,98.00
2019-06-27T22:20:47.112Z,98.00
2019-06-27T22:23:16.905Z,98.10
2019-06-27T22:25:46.655Z,97.70
2019-06-27T22:28:16.423Z,98.20
2019-06-27T22:30:46.111Z,98.10
2019-06-27T22:33:15.960Z,98.00
2019-06-27T22:35:45.651Z,98.10
2019-06-27T22:38:33.227Z,98.00
2019-06-27T22:41:20.860Z,98.20
2019-06-27T22:44:08.310Z,98.10
2019-06-27T22:46:56.098Z,98.20
2019-06-27T22:49:25.627Z,98.50
2019-06-27T22:52:13.068Z,98.60
2019-06-27T22:54:43.556Z,98.80
2019-06-27T22:57:13.335Z,98.90
2019-06-27T22:59:43.084Z,98.80
2019-06-27T23:02:12.786Z,99.00
2019-06-27T23:04:42.484Z,99.20
2019-06-27T23:07:12.387Z,99.30
2019-06-27T23:09:55.977Z,99.10
2019-06-27T23:12:13.671Z,98.70
2019-06-27T23:14:43.367Z,98.90
2019-06-27T23:17:13.067Z,98.60
2019-06-27T23:19:42.847Z,98.70
2019-06-27T23:22:12.706Z,98.80
2019-06-27T23:24:42.501Z,98.60
2019-06-27T23:27:12.311Z,98.60
2019-06-27T23:29:42.018Z,98.60
2019-06-27T23:32:11.834Z,98.80
2019-06-27T23:34:41.538Z,99.00
2019-06-27T23:37:11.343Z,98.80
2019-06-27T23:39:41.058Z,99.00
2019-06-27T23:42:10.767Z,99.00
2019-06-27T23:44:40.588Z,99.10
2019-06-27T23:47:10.290Z,99.50
2019-06-27T23:49:40.366Z,99.60
2019-06-27T23:52:10.187Z,99.80
2019-06-27T23:54:39.878Z,99.90
2019-06-27T23:57:09.563Z,99.90
2019-06-27T23:59:39.315Z,99.90
